Portada
METAR-TAF:

METAR-TAF

Aeropuertos :

Aeropuerto de Gibraltar

Gibraltar, Gibraltar

latitud: 36-09N, longitud: 005-21W, altitud: 5 m

Observación

El informe se hizo hace 58 minutos, a las 18:50 UTC
Viento 13 kt del este-noreste
Temperatura 16°C
Humedad 88%
Presión 1022 hPa
Visibilidad 10 km o más

METAR: LXGB 181850Z AUTO 07013KT 9999 // BKN015/// SCT025/// 16/14 Q1022

Hora: 20:48 (19:48 UTC)

Pronóstico

El informe se hizo hace 6 horas y 27 minutos, a las 13:21 UTC
Pronóstico válido del 18 a las 15 UTC al 18 a las 23 UTC
Viento 12 kt del este
Visibilidad 10 km o más
Escasas nubes a una altura de 1800 ft
Temporalmente
del 18 a las 15 UTC al 18 a las 23 UTC
Nubes dispersas a una altura de 1800 ft
Probabilidad 30% :
Temporalmente
del 18 a las 15 UTC al 18 a las 18 UTC
Viento 15 kt del este con ráfagas de 25 kt

TAF: LXGB 181321Z 1815/1823 08012KT 9999 FEW018 TEMPO 1815/1823 SCT018 PROB30 TEMPO 1815/1818 08015G25KT

Observaciones y pronósticos meteorológicos de más de 4000 aeropuertos (mensajes METAR y TAF).

Los puntos amarillos y rojos representan las estaciones disponibles.

Ponga el ratón en el punto deseado para ver el nombre de la estación.

Haga clic para ver las observaciones y los pronósticos meteorológicos.

Para cambiar el mapa : haga clic en los botones verdes con una cruz de color negro para hacer un zoom, en el botón verde con un guión para alejar o en las flechas verdes para mapas adyacentes.


METAR-TAF: